createdAt,value
2023-02-17T00:03:16.633Z,13.77
2023-02-17T00:05:45.744Z,9.30
2023-02-17T00:08:13.776Z,19.83
2023-02-17T00:10:41.697Z,9.23
2023-02-17T00:13:09.600Z,11.90
2023-02-17T00:15:39.540Z,8.00
2023-02-17T00:18:07.461Z,9.20
2023-02-17T00:20:36.748Z,25.27
2023-02-17T00:23:04.645Z,15.07
2023-02-17T00:25:32.540Z,10.73
2023-02-17T00:28:00.405Z,11.10
2023-02-17T00:30:28.372Z,13.37
2023-02-17T00:32:56.305Z,12.60
2023-02-17T00:35:24.444Z,7.30
2023-02-17T00:37:54.253Z,9.43
2023-02-17T00:40:22.253Z,10.00
2023-02-17T00:42:50.192Z,9.67
2023-02-17T00:45:19.376Z,9.60
2023-02-17T00:47:47.250Z,9.90
2023-02-17T00:50:15.333Z,8.90
2023-02-17T00:52:43.257Z,12.20
2023-02-17T00:55:12.594Z,11.77
2023-02-17T00:57:40.455Z,10.83
2023-02-17T01:00:09.994Z,19.60
2023-02-17T01:02:37.858Z,12.27
2023-02-17T01:05:06.584Z,8.03
2023-02-17T01:07:34.493Z,11.93
2023-02-17T01:10:02.444Z,11.70
2023-02-17T01:12:31.693Z,13.10
2023-02-17T01:14:59.902Z,12.00
2023-02-17T01:17:28.044Z,11.90
2023-02-17T01:19:56.613Z,9.83
2023-02-17T01:22:24.603Z,7.77
2023-02-17T01:24:52.933Z,10.73
2023-02-17T01:27:20.830Z,8.93
2023-02-17T01:29:50.286Z,12.83
2023-02-17T01:32:18.675Z,10.10
2023-02-17T01:34:48.951Z,17.57
2023-02-17T01:37:17.090Z,9.60
2023-02-17T01:39:45.251Z,10.00
2023-02-17T01:42:16.923Z,14.40
2023-02-17T01:45:32.406Z,7.93
2023-02-17T01:48:03.808Z,7.80
2023-02-17T01:50:35.600Z,9.30
2023-02-17T01:53:06.125Z,11.43
2023-02-17T01:55:35.775Z,11.93
2023-02-17T01:58:08.891Z,12.17
2023-02-17T02:00:39.138Z,9.30
2023-02-17T02:03:10.789Z,8.03
2023-02-17T02:05:40.781Z,5.87
2023-02-17T02:08:09.583Z,8.43
2023-02-17T02:10:37.448Z,16.60
2023-02-17T02:13:07.620Z,9.90
2023-02-17T02:15:45.577Z,11.10
2023-02-17T02:18:25.833Z,7.60
2023-02-17T02:21:16.391Z,9.77
2023-02-17T02:23:57.182Z,17.57
2023-02-17T02:26:55.849Z,9.50
2023-02-17T02:29:54.199Z,12.17
2023-02-17T02:32:45.310Z,18.47
2023-02-17T02:35:17.493Z,11.93
2023-02-17T02:37:48.729Z,12.37
2023-02-17T02:40:21.457Z,12.63
2023-02-17T02:42:49.610Z,10.37
2023-02-17T02:45:19.099Z,12.93
2023-02-17T02:47:52.493Z,8.87
2023-02-17T02:50:34.955Z,11.87
2023-02-17T02:53:20.601Z,19.13
2023-02-17T02:55:54.213Z,9.53
2023-02-17T02:58:28.715Z,11.03
2023-02-17T03:01:04.883Z,7.43
2023-02-17T03:03:42.287Z,15.60
2023-02-17T03:06:18.743Z,19.33
2023-02-17T03:08:51.254Z,13.27
2023-02-17T03:11:32.257Z,9.07
2023-02-17T03:14:03.439Z,7.07
2023-02-17T03:16:31.917Z,9.27
2023-02-17T03:19:01.942Z,10.10
2023-02-17T03:21:37.176Z,13.63
2023-02-17T03:24:06.425Z,12.10
2023-02-17T03:26:34.340Z,13.90
2023-02-17T03:29:12.966Z,10.07
2023-02-17T03:31:44.054Z,12.67
2023-02-17T03:34:13.415Z,7.33
2023-02-17T03:36:48.454Z,9.90
2023-02-17T03:39:17.683Z,8.57
2023-02-17T03:41:51.724Z,12.27
2023-02-17T03:44:20.698Z,7.83
2023-02-17T03:46:48.660Z,14.00
2023-02-17T03:49:19.330Z,13.50
2023-02-17T03:51:51.959Z,13.50
2023-02-17T03:54:50.358Z,15.77
2023-02-17T03:57:38.342Z,12.63
2023-02-17T04:00:13.208Z,9.17
2023-02-17T04:02:44.456Z,15.73
2023-02-17T04:05:29.005Z,10.90
2023-02-17T04:07:58.617Z,11.50
2023-02-17T04:10:42.533Z,17.80
2023-02-17T04:13:25.963Z,14.60
2023-02-17T04:15:57.286Z,15.67
2023-02-17T04:18:27.644Z,13.43
2023-02-17T04:21:03.297Z,12.43
2023-02-17T04:23:33.559Z,15.17
2023-02-17T04:26:45.998Z,14.13
2023-02-17T04:29:23.632Z,16.67
2023-02-17T04:31:53.541Z,13.20
2023-02-17T04:38:10.329Z,17.33
2023-02-17T04:40:42.724Z,13.03
2023-02-17T04:43:13.527Z,21.30
2023-02-17T04:45:50.359Z,13.00
2023-02-17T04:51:27.683Z,10.03
2023-02-17T04:54:21.611Z,15.63
2023-02-17T04:57:01.371Z,11.77
2023-02-17T04:59:33.654Z,11.90
2023-02-17T05:02:03.468Z,11.97
2023-02-17T05:04:45.901Z,9.67
2023-02-17T05:07:44.309Z,13.63
2023-02-17T05:10:14.591Z,8.77
2023-02-17T05:12:42.602Z,19.50
2023-02-17T05:15:13.027Z,10.60
2023-02-17T05:17:41.029Z,12.20
2023-02-17T05:20:10.300Z,8.70
2023-02-17T05:22:51.063Z,11.53
2023-02-17T05:25:24.408Z,11.23
2023-02-17T05:28:16.066Z,10.63
2023-02-17T05:31:01.684Z,8.47
2023-02-17T05:33:31.015Z,9.50
2023-02-17T05:36:03.906Z,11.73
2023-02-17T05:39:02.676Z,7.70
2023-02-17T05:41:32.117Z,11.63
2023-02-17T05:44:02.562Z,11.10
2023-02-17T05:46:52.337Z,22.73
2023-02-17T05:49:37.270Z,12.03
2023-02-17T05:52:24.572Z,16.57
2023-02-17T05:55:07.809Z,13.83
2023-02-17T05:57:39.659Z,10.90
2023-02-17T06:00:17.631Z,12.93
2023-02-17T06:02:45.590Z,10.80
2023-02-17T06:05:16.247Z,9.70
2023-02-17T06:07:48.606Z,9.53
2023-02-17T06:10:24.859Z,9.50
2023-02-17T06:12:54.106Z,12.27
2023-02-17T06:15:34.311Z,12.83
2023-02-17T06:18:11.637Z,13.37
2023-02-17T06:21:15.480Z,10.97
2023-02-17T06:23:49.151Z,12.03
2023-02-17T06:26:32.504Z,11.93
2023-02-17T06:29:06.571Z,17.43
2023-02-17T06:31:38.328Z,18.13
2023-02-17T06:34:08.245Z,13.97
2023-02-17T06:36:42.430Z,16.60
2023-02-17T06:39:10.489Z,11.77
2023-02-17T06:41:47.876Z,13.83
2023-02-17T06:44:17.256Z,12.87
2023-02-17T06:46:46.852Z,9.80
2023-02-17T06:49:29.014Z,13.20
2023-02-17T06:52:00.098Z,9.73
2023-02-17T06:54:28.273Z,13.33
2023-02-17T06:57:06.472Z,9.30
2023-02-17T06:59:38.203Z,9.80
2023-02-17T07:02:08.371Z,9.20
2023-02-17T07:04:38.521Z,8.87
2023-02-17T07:07:12.090Z,7.40
2023-02-17T07:09:42.764Z,7.50
2023-02-17T07:12:17.933Z,8.80
2023-02-17T07:14:47.363Z,7.70
2023-02-17T07:17:16.101Z,5.83
2023-02-17T07:19:51.654Z,6.43
2023-02-17T07:22:25.438Z,5.00
2023-02-17T07:24:53.405Z,6.57
2023-02-17T07:27:21.309Z,5.00
2023-02-17T07:29:50.484Z,6.70
2023-02-17T07:32:18.423Z,8.07
2023-02-17T07:34:47.830Z,7.17
2023-02-17T07:37:15.732Z,7.30
2023-02-17T07:39:44.413Z,7.00
2023-02-17T07:42:12.601Z,6.33
2023-02-17T07:44:40.455Z,8.13
2023-02-17T07:47:09.812Z,10.33
2023-02-17T07:49:37.722Z,6.00
2023-02-17T07:52:06.024Z,4.87
2023-02-17T07:54:34.012Z,5.80
2023-02-17T07:57:02.063Z,7.47
2023-02-17T07:59:30.078Z,4.47
2023-02-17T08:01:58.045Z,5.97
2023-02-17T08:04:27.875Z,4.37
2023-02-17T08:06:55.791Z,6.00
2023-02-17T08:09:41.073Z,6.83
2023-02-17T08:12:33.358Z,5.17
2023-02-17T08:15:01.823Z,6.20
2023-02-17T08:17:30.060Z,7.63
2023-02-17T08:20:05.865Z,9.17
2023-02-17T08:22:36.406Z,8.07
2023-02-17T08:25:06.036Z,13.53
2023-02-17T08:27:34.559Z,5.50
2023-02-17T08:30:02.568Z,4.40
2023-02-17T08:32:30.476Z,6.77
2023-02-17T08:34:59.912Z,5.77
2023-02-17T08:37:27.804Z,5.57
2023-02-17T08:39:55.714Z,5.53
2023-02-17T08:42:25.840Z,5.03
2023-02-17T08:44:53.894Z,5.40
2023-02-17T08:47:25.020Z,5.73
2023-02-17T08:49:52.914Z,5.53
2023-02-17T08:52:25.238Z,4.77
2023-02-17T08:54:53.711Z,5.37
2023-02-17T08:57:22.446Z,3.70
2023-02-17T08:59:50.775Z,6.00
2023-02-17T09:02:22.744Z,3.73
2023-02-17T09:04:50.914Z,13.57
2023-02-17T09:07:23.080Z,3.40
2023-02-17T09:09:51.269Z,4.33
2023-02-17T09:12:19.179Z,2.50
2023-02-17T09:14:49.559Z,3.67
2023-02-17T09:17:17.452Z,3.90
2023-02-17T09:19:45.459Z,5.77
2023-02-17T09:22:30.608Z,5.17
2023-02-17T09:25:00.709Z,8.13
2023-02-17T09:27:30.841Z,3.43
2023-02-17T09:29:59.097Z,3.30
2023-02-17T09:32:27.063Z,5.60
2023-02-17T09:34:55.132Z,4.13
2023-02-17T09:37:24.783Z,3.90
2023-02-17T09:39:53.177Z,4.70
2023-02-17T09:42:27.022Z,7.23
2023-02-17T09:45:01.165Z,5.43
2023-02-17T09:47:35.937Z,3.30
2023-02-17T09:50:07.646Z,5.00
2023-02-17T09:53:03.052Z,6.53
2023-02-17T09:55:38.341Z,4.90
2023-02-17T09:58:14.701Z,5.10
2023-02-17T10:00:52.200Z,3.03
2023-02-17T10:03:27.709Z,3.73
2023-02-17T10:06:11.152Z,3.50
2023-02-17T10:08:50.303Z,4.17
2023-02-17T10:11:28.007Z,3.90
2023-02-17T10:14:02.331Z,4.20
2023-02-17T10:16:36.003Z,3.20
2023-02-17T10:19:14.541Z,6.13
2023-02-17T10:21:47.720Z,4.10
2023-02-17T10:24:15.687Z,4.67
2023-02-17T10:26:56.299Z,4.40
2023-02-17T10:29:35.292Z,6.73
2023-02-17T10:32:19.470Z,3.17
2023-02-17T10:34:58.697Z,4.20
2023-02-17T10:37:38.704Z,6.20
2023-02-17T10:40:13.494Z,4.97
2023-02-17T10:42:42.937Z,3.37
2023-02-17T10:45:21.305Z,4.40
2023-02-17T10:47:49.257Z,3.00
2023-02-17T10:50:22.302Z,4.17
2023-02-17T10:52:51.581Z,3.00
2023-02-17T10:55:25.982Z,5.77
2023-02-17T10:57:58.469Z,8.87
2023-02-17T11:00:30.378Z,3.07
2023-02-17T11:02:58.302Z,3.23
2023-02-17T11:05:32.050Z,7.20
2023-02-17T11:08:03.697Z,2.90
2023-02-17T11:10:34.176Z,3.70
2023-02-17T11:13:03.656Z,10.70
2023-02-17T11:15:36.362Z,4.17
2023-02-17T11:18:12.234Z,3.33
2023-02-17T11:20:40.254Z,3.50
2023-02-17T11:23:22.974Z,3.70
2023-02-17T11:26:00.703Z,5.63
2023-02-17T11:28:33.090Z,3.90
2023-02-17T11:31:04.796Z,6.00
2023-02-17T11:33:35.937Z,3.10
2023-02-17T11:36:05.825Z,7.03
2023-02-17T11:38:43.301Z,5.10
2023-02-17T11:41:11.234Z,5.33
2023-02-17T11:43:40.099Z,4.60
2023-02-17T11:46:21.355Z,6.37
2023-02-17T11:49:30.922Z,4.67
2023-02-17T11:52:09.807Z,4.80
2023-02-17T11:54:51.045Z,5.83
2023-02-17T11:57:32.711Z,3.67
2023-02-17T12:00:11.969Z,4.23
2023-02-17T12:03:03.265Z,3.10
2023-02-17T12:05:40.307Z,3.37
2023-02-17T12:08:18.565Z,4.00
2023-02-17T12:10:57.857Z,4.17
2023-02-17T12:13:35.803Z,4.87
2023-02-17T12:16:15.765Z,2.80
2023-02-17T12:18:55.882Z,2.77
2023-02-17T12:21:43.064Z,2.00
2023-02-17T12:24:42.280Z,1.77
2023-02-17T12:27:33.811Z,2.50
2023-02-17T12:30:14.297Z,2.20
2023-02-17T12:33:01.417Z,3.00
2023-02-17T12:35:40.287Z,4.70
2023-02-17T12:38:14.152Z,3.23
2023-02-17T12:40:46.341Z,1.43
2023-02-17T12:43:23.680Z,4.30
2023-02-17T12:45:53.391Z,3.40
2023-02-17T12:48:29.226Z,1.70
2023-02-17T12:51:05.492Z,1.93
2023-02-17T12:53:43.095Z,1.67
2023-02-17T12:56:34.852Z,1.17
2023-02-17T12:59:13.583Z,0.90
2023-02-17T13:01:49.497Z,2.00
2023-02-17T13:04:20.922Z,1.30
2023-02-17T13:06:56.066Z,1.40
2023-02-17T13:09:31.391Z,1.80
2023-02-17T13:12:11.014Z,3.53
2023-02-17T13:14:44.408Z,1.40
2023-02-17T13:17:27.395Z,5.03
2023-02-17T13:20:08.628Z,1.47
2023-02-17T13:22:38.170Z,1.73
2023-02-17T13:25:07.121Z,1.53
2023-02-17T13:27:37.231Z,1.63
2023-02-17T13:30:10.042Z,2.00
2023-02-17T13:32:39.809Z,1.80
2023-02-17T13:35:19.092Z,2.60
2023-02-17T13:37:48.499Z,1.83
2023-02-17T13:40:36.653Z,4.80
2023-02-17T13:43:15.865Z,1.33
2023-02-17T13:45:47.923Z,1.67
2023-02-17T13:48:24.937Z,1.70
2023-02-17T13:50:54.791Z,1.50
2023-02-17T13:53:32.394Z,9.00
2023-02-17T13:56:01.941Z,1.80
2023-02-17T13:58:32.039Z,1.20
2023-02-17T14:01:01.693Z,1.80
2023-02-17T14:03:31.636Z,1.50
2023-02-17T14:06:01.464Z,1.33
2023-02-17T14:08:35.568Z,1.70
2023-02-17T14:11:09.169Z,2.40
2023-02-17T14:13:38.003Z,1.53
2023-02-17T14:16:07.556Z,2.07
2023-02-17T14:18:37.930Z,3.03
2023-02-17T14:21:09.154Z,2.40
2023-02-17T14:23:47.564Z,1.50
2023-02-17T14:26:27.059Z,1.90
2023-02-17T14:28:56.529Z,2.70
2023-02-17T14:31:25.283Z,2.13
2023-02-17T14:33:58.432Z,1.80
2023-02-17T14:36:32.727Z,1.93
2023-02-17T14:39:03.808Z,2.27
2023-02-17T14:41:31.986Z,1.83
2023-02-17T14:44:00.676Z,1.77
2023-02-17T14:46:29.126Z,1.93
2023-02-17T14:48:56.998Z,3.07
2023-02-17T14:51:27.250Z,3.50
2023-02-17T14:53:55.171Z,2.67
2023-02-17T14:56:28.804Z,3.30
2023-02-17T14:58:56.991Z,4.93
2023-02-17T15:01:26.190Z,1.70
2023-02-17T15:03:54.971Z,1.77
2023-02-17T15:06:28.896Z,3.60
2023-02-17T15:08:58.698Z,1.70
2023-02-17T15:11:31.546Z,1.83
2023-02-17T15:13:59.461Z,2.47
2023-02-17T15:16:27.481Z,3.90
2023-02-17T15:18:55.659Z,1.40
2023-02-17T15:21:27.827Z,2.97
2023-02-17T15:23:56.693Z,2.87
2023-02-17T15:26:24.996Z,2.67
2023-02-17T15:28:57.030Z,2.37
2023-02-17T15:31:28.068Z,2.27
2023-02-17T15:33:57.905Z,1.50
2023-02-17T15:36:26.764Z,2.10
2023-02-17T15:38:55.175Z,2.00
2023-02-17T15:41:26.345Z,1.70
2023-02-17T15:43:57.008Z,1.80
2023-02-17T15:46:30.909Z,1.90
2023-02-17T15:48:58.859Z,2.03
2023-02-17T15:51:26.793Z,2.10
2023-02-17T15:53:54.719Z,1.83
2023-02-17T15:56:24.849Z,2.60
2023-02-17T15:58:54.027Z,1.90
2023-02-17T16:01:29.269Z,2.37
2023-02-17T16:03:57.443Z,2.03
2023-02-17T16:06:25.672Z,2.00
2023-02-17T16:08:54.273Z,6.00
2023-02-17T16:11:23.698Z,26.90
2023-02-17T16:13:52.231Z,28.57
2023-02-17T16:16:22.821Z,5.30
2023-02-17T16:18:53.191Z,3.53
2023-02-17T16:21:21.110Z,5.33
2023-02-17T16:23:49.072Z,3.37
2023-02-17T16:26:25.929Z,6.07
2023-02-17T16:28:54.471Z,2.53
2023-02-17T16:31:24.024Z,1.60
2023-02-17T16:33:59.667Z,2.07
2023-02-17T16:36:30.963Z,1.80
2023-02-17T16:39:00.758Z,2.17
2023-02-17T16:41:28.627Z,1.60
2023-02-17T16:43:56.504Z,2.17
2023-02-17T16:46:30.099Z,1.80
2023-02-17T16:49:00.910Z,1.90
2023-02-17T16:51:29.002Z,2.90
2023-02-17T16:53:57.249Z,1.90
2023-02-17T16:56:37.763Z,2.13
2023-02-17T16:59:05.807Z,2.20
2023-02-17T17:01:33.744Z,2.13
2023-02-17T17:04:02.953Z,1.43
2023-02-17T17:06:31.280Z,1.63
2023-02-17T17:08:59.181Z,1.93
2023-02-17T17:11:28.463Z,1.87
2023-02-17T17:13:56.592Z,2.20
2023-02-17T17:16:27.737Z,1.90
2023-02-17T17:18:55.648Z,1.47
2023-02-17T17:21:25.339Z,1.77
2023-02-17T17:23:53.704Z,3.37
2023-02-17T17:26:27.103Z,1.47
2023-02-17T17:28:55.646Z,1.43
2023-02-17T17:31:23.925Z,1.47
2023-02-17T17:33:52.313Z,1.27
2023-02-17T17:36:25.879Z,1.33
2023-02-17T17:38:56.936Z,1.30
2023-02-17T17:41:25.974Z,1.77
2023-02-17T17:43:55.405Z,1.87
2023-02-17T17:46:25.716Z,5.03
2023-02-17T17:48:53.597Z,2.37
2023-02-17T17:51:23.535Z,3.73
2023-02-17T17:53:53.389Z,2.73
2023-02-17T17:56:23.377Z,2.13
2023-02-17T17:58:52.425Z,4.10
2023-02-17T18:01:21.515Z,2.83
2023-02-17T18:03:50.222Z,1.80
2023-02-17T18:06:21.873Z,1.53
2023-02-17T18:08:52.512Z,1.67
2023-02-17T18:11:21.879Z,1.40
2023-02-17T18:13:53.372Z,4.17
2023-02-17T18:16:24.085Z,4.03
2023-02-17T18:18:52.328Z,1.60
2023-02-17T18:21:20.271Z,1.53
2023-02-17T18:23:48.469Z,1.10
2023-02-17T18:26:18.550Z,2.73
2023-02-17T18:28:46.545Z,2.00
2023-02-17T18:31:16.619Z,2.53
2023-02-17T18:33:44.622Z,5.20
2023-02-17T18:36:15.589Z,1.30
2023-02-17T18:38:44.088Z,1.53
2023-02-17T18:41:20.069Z,1.93
2023-02-17T18:43:48.659Z,5.03
2023-02-17T18:46:16.763Z,1.40
2023-02-17T18:48:44.849Z,1.87
2023-02-17T18:51:15.041Z,1.57
2023-02-17T18:53:43.355Z,1.70
2023-02-17T18:56:13.391Z,1.90
2023-02-17T18:58:42.908Z,1.77
2023-02-17T19:01:16.231Z,1.43
2023-02-17T19:03:44.337Z,1.87
2023-02-17T19:06:14.808Z,2.30
2023-02-17T19:08:42.876Z,1.80
2023-02-17T19:11:11.251Z,2.20
2023-02-17T19:13:39.621Z,2.13
2023-02-17T19:16:11.755Z,2.17
2023-02-17T19:18:40.135Z,2.70
2023-02-17T19:21:09.207Z,4.50
2023-02-17T19:23:39.110Z,3.73
2023-02-17T19:26:08.577Z,2.80
2023-02-17T19:28:38.220Z,2.10
2023-02-17T19:31:07.583Z,3.10
2023-02-17T19:33:37.148Z,2.43
2023-02-17T19:36:08.761Z,2.80
2023-02-17T19:38:37.520Z,2.43
2023-02-17T19:41:06.873Z,3.20
2023-02-17T19:43:34.933Z,2.60
2023-02-17T19:46:04.581Z,2.87
2023-02-17T19:48:33.069Z,3.17
2023-02-17T19:51:04.597Z,3.07
2023-02-17T19:53:33.158Z,2.23
2023-02-17T19:56:11.575Z,1.67
2023-02-17T19:58:40.230Z,1.70
2023-02-17T20:01:09.656Z,1.37
2023-02-17T20:03:37.890Z,2.17
2023-02-17T20:06:10.151Z,2.70
2023-02-17T20:08:39.147Z,2.20
2023-02-17T20:11:10.615Z,1.70
2023-02-17T20:14:00.908Z,1.63
2023-02-17T20:16:31.786Z,2.00
2023-02-17T20:19:02.020Z,1.83
2023-02-17T20:21:34.925Z,1.60
2023-02-17T20:24:03.168Z,1.80
2023-02-17T20:26:34.366Z,1.93
2023-02-17T20:29:03.028Z,1.77
2023-02-17T20:31:31.437Z,1.60
2023-02-17T20:33:59.429Z,4.00
2023-02-17T20:36:27.353Z,1.90
2023-02-17T20:38:56.588Z,2.10
2023-02-17T20:41:24.972Z,1.60
2023-02-17T20:43:53.549Z,2.50
2023-02-17T20:46:24.425Z,2.37
2023-02-17T20:48:52.422Z,2.10
2023-02-17T20:51:21.484Z,3.07
2023-02-17T20:53:51.169Z,1.63
2023-02-17T20:56:22.698Z,4.30
2023-02-17T20:58:51.870Z,2.43
2023-02-17T21:01:20.361Z,2.10
2023-02-17T21:03:48.297Z,4.10
2023-02-17T21:06:21.734Z,2.87
2023-02-17T21:08:51.548Z,3.00
2023-02-17T21:11:21.010Z,5.50
2023-02-17T21:13:49.051Z,5.13
2023-02-17T21:16:20.004Z,4.90
2023-02-17T21:18:48.013Z,5.93
2023-02-17T21:21:16.517Z,6.40
2023-02-17T21:23:45.168Z,12.10
2023-02-17T21:26:14.584Z,4.30
2023-02-17T21:28:44.631Z,25.83
2023-02-17T21:31:14.702Z,8.17
2023-02-17T21:33:43.205Z,3.80
2023-02-17T21:36:12.770Z,5.00
2023-02-17T21:38:41.139Z,7.40
2023-02-17T21:41:11.239Z,3.90
2023-02-17T21:43:57.003Z,3.47
2023-02-17T21:46:27.641Z,5.07
2023-02-17T21:48:56.762Z,5.93
2023-02-17T21:51:39.225Z,4.43
2023-02-17T21:54:09.320Z,6.37
2023-02-17T21:56:37.818Z,4.03
2023-02-17T21:59:06.158Z,5.20
2023-02-17T22:01:35.894Z,5.87
2023-02-17T22:04:04.287Z,4.50
2023-02-17T22:06:42.940Z,4.57
2023-02-17T22:09:25.903Z,4.07
2023-02-17T22:11:53.970Z,3.33
2023-02-17T22:14:22.763Z,6.17
2023-02-17T22:16:52.281Z,3.33
2023-02-17T22:19:26.083Z,2.93
2023-02-17T22:21:59.317Z,3.43
2023-02-17T22:24:43.764Z,3.20
2023-02-17T22:27:12.167Z,7.80
2023-02-17T22:29:45.015Z,6.77
2023-02-17T22:32:14.739Z,3.30
2023-02-17T22:34:45.037Z,3.57
2023-02-17T22:37:13.303Z,1.63
2023-02-17T22:39:44.286Z,3.30
2023-02-17T22:42:14.196Z,1.90
2023-02-17T22:44:42.670Z,5.00
2023-02-17T22:47:18.574Z,2.50
2023-02-17T22:49:50.138Z,2.20
2023-02-17T22:52:26.493Z,2.20
2023-02-17T22:55:02.177Z,2.27
2023-02-17T22:57:30.701Z,2.23
2023-02-17T23:00:08.846Z,2.20
2023-02-17T23:02:41.826Z,2.87
2023-02-17T23:05:35.792Z,3.30
2023-02-17T23:08:24.681Z,3.90
2023-02-17T23:10:55.988Z,15.33
2023-02-17T23:13:24.951Z,1.70
2023-02-17T23:15:53.696Z,4.07
2023-02-17T23:18:24.984Z,2.60
2023-02-17T23:20:54.053Z,1.90
2023-02-17T23:23:29.516Z,3.60
2023-02-17T23:26:08.532Z,4.50
2023-02-17T23:28:39.559Z,5.03
2023-02-17T23:31:29.672Z,3.10
2023-02-17T23:34:03.568Z,2.27
2023-02-17T23:37:09.032Z,2.57
2023-02-17T23:39:42.659Z,3.60
2023-02-17T23:42:35.192Z,2.77
2023-02-17T23:45:33.489Z,2.70
2023-02-17T23:48:05.149Z,2.83
2023-02-17T23:50:44.709Z,3.83
2023-02-17T23:56:34.275Z,3.23
2023-02-17T23:59:25.306Z,2.73
